createdAt,value
2022-09-28T00:02:20.402Z,3.90
2022-09-28T00:05:09.339Z,4.20
2022-09-28T00:07:57.476Z,3.10
2022-09-28T00:10:46.527Z,2.90
2022-09-28T00:13:35.372Z,2.30
2022-09-28T00:16:27.601Z,2.40
2022-09-28T00:19:16.379Z,2.50
2022-09-28T00:22:04.733Z,2.20
2022-09-28T00:24:53.396Z,2.20
2022-09-28T00:27:41.617Z,2.10
2022-09-28T00:30:29.520Z,2.10
2022-09-28T00:33:18.235Z,2.10
2022-09-28T00:36:07.682Z,2.10
2022-09-28T00:38:58.229Z,1.80
2022-09-28T00:41:47.254Z,1.80
2022-09-28T00:44:56.212Z,1.80
2022-09-28T00:47:52.433Z,1.90
2022-09-28T00:50:41.412Z,2.00
2022-09-28T00:53:36.712Z,1.70
2022-09-28T00:56:30.385Z,2.00
2022-09-28T00:59:18.978Z,2.10
2022-09-28T01:02:07.774Z,2.00
2022-09-28T01:05:08.025Z,2.40
2022-09-28T01:07:59.022Z,1.90
2022-09-28T01:10:49.010Z,2.00
2022-09-28T01:13:40.627Z,2.00
2022-09-28T01:17:25.880Z,2.10
2022-09-28T01:20:44.895Z,2.30
2022-09-28T01:24:14.077Z,2.20
2022-09-28T01:27:32.023Z,2.20
2022-09-28T01:30:22.587Z,2.40
2022-09-28T01:33:21.028Z,2.30
2022-09-28T01:36:50.897Z,2.30
2022-09-28T01:39:45.408Z,2.50
2022-09-28T01:42:37.675Z,2.40
2022-09-28T01:45:35.037Z,2.30
2022-09-28T01:48:36.256Z,3.10
2022-09-28T01:52:09.327Z,2.80
2022-09-28T01:55:19.362Z,2.50
2022-09-28T01:58:36.474Z,2.30
2022-09-28T02:01:36.447Z,3.20
2022-09-28T02:04:46.836Z,2.90
2022-09-28T02:08:02.233Z,2.70
2022-09-28T02:10:58.501Z,2.80
2022-09-28T02:13:58.552Z,2.90
2022-09-28T02:16:54.414Z,2.70
2022-09-28T02:19:47.629Z,2.70
2022-09-28T02:22:48.039Z,2.80
2022-09-28T02:25:58.563Z,3.10
2022-09-28T02:28:47.193Z,2.60
2022-09-28T02:31:35.981Z,2.60
2022-09-28T02:34:24.840Z,2.40
2022-09-28T02:37:13.477Z,2.60
2022-09-28T02:40:02.277Z,2.50
2022-09-28T02:43:24.693Z,2.70
2022-09-28T02:46:28.708Z,2.40
2022-09-28T02:49:42.085Z,3.00
2022-09-28T02:53:33.457Z,2.50
2022-09-28T02:56:30.179Z,2.70
2022-09-28T02:59:53.722Z,2.60
2022-09-28T03:03:04.126Z,2.80
2022-09-28T03:06:00.493Z,3.00
2022-09-28T03:09:18.858Z,2.80
2022-09-28T03:12:14.821Z,2.90
2022-09-28T03:15:10.804Z,3.30
2022-09-28T03:17:59.660Z,3.30
2022-09-28T03:20:47.684Z,3.40
2022-09-28T03:23:35.803Z,3.40
2022-09-28T03:26:23.396Z,3.30
2022-09-28T03:29:11.381Z,3.10
2022-09-28T03:31:59.638Z,3.10
2022-09-28T03:34:47.514Z,2.90
2022-09-28T03:37:36.195Z,2.70
2022-09-28T03:40:24.683Z,2.70
2022-09-28T03:43:13.469Z,3.10
2022-09-28T03:46:02.842Z,3.00
2022-09-28T03:48:52.589Z,3.60
2022-09-28T03:51:40.238Z,2.80
2022-09-28T03:54:29.826Z,2.90
2022-09-28T03:57:17.931Z,3.20
2022-09-28T04:00:06.809Z,2.90
2022-09-28T04:03:01.401Z,3.40
2022-09-28T04:05:53.848Z,3.60
2022-09-28T04:08:43.678Z,3.10
2022-09-28T04:11:43.045Z,2.90
2022-09-28T04:14:40.417Z,3.60
2022-09-28T04:17:28.397Z,3.20
2022-09-28T04:20:17.254Z,3.60
2022-09-28T04:23:20.583Z,3.10
2022-09-28T04:26:21.202Z,3.50
2022-09-28T04:29:19.407Z,3.20
2022-09-28T04:32:15.065Z,3.70
2022-09-28T04:35:02.985Z,4.10
2022-09-28T04:37:50.969Z,3.00
2022-09-28T04:40:38.977Z,3.50
2022-09-28T04:43:27.127Z,3.50
2022-09-28T04:46:15.515Z,2.80
2022-09-28T04:49:11.477Z,3.60
2022-09-28T04:52:12.542Z,2.90
2022-09-28T04:55:06.178Z,3.50
2022-09-28T04:57:54.780Z,3.80
2022-09-28T05:00:42.820Z,3.50
2022-09-28T05:03:46.428Z,3.70
2022-09-28T05:07:06.971Z,3.90
2022-09-28T05:09:56.126Z,4.90
2022-09-28T05:12:44.160Z,4.90
2022-09-28T05:15:36.184Z,5.00
2022-09-28T05:18:24.930Z,5.10
2022-09-28T05:21:25.284Z,4.90
2022-09-28T05:24:13.334Z,4.80
2022-09-28T05:27:01.289Z,5.40
2022-09-28T05:29:50.640Z,4.40
2022-09-28T05:32:59.437Z,4.20
2022-09-28T05:36:11.266Z,3.80
2022-09-28T05:38:59.566Z,4.10
2022-09-28T05:41:47.317Z,5.10
2022-09-28T05:44:35.356Z,4.40
2022-09-28T05:47:23.204Z,4.70
2022-09-28T05:50:12.153Z,4.60
2022-09-28T05:53:06.152Z,6.10
2022-09-28T05:55:59.522Z,31.70
2022-09-28T05:58:47.549Z,6.80
2022-09-28T06:01:38.428Z,5.60
2022-09-28T06:04:29.407Z,6.00
2022-09-28T06:07:18.574Z,5.50
2022-09-28T06:10:06.959Z,7.20
2022-09-28T06:13:02.533Z,5.40
2022-09-28T06:15:50.579Z,5.70
2022-09-28T06:18:38.543Z,5.50
2022-09-28T06:21:42.782Z,5.30
2022-09-28T06:24:30.731Z,5.30
2022-09-28T06:27:18.720Z,5.50
2022-09-28T06:30:07.452Z,5.00
2022-09-28T06:32:57.823Z,4.80
2022-09-28T06:35:47.391Z,5.60
2022-09-28T06:38:35.395Z,4.90
2022-09-28T06:41:24.478Z,4.80
2022-09-28T06:44:12.757Z,4.10
2022-09-28T06:47:22.240Z,4.50
2022-09-28T06:50:41.632Z,5.00
2022-09-28T06:53:48.558Z,5.30
2022-09-28T06:56:53.610Z,4.90
2022-09-28T06:59:41.905Z,4.90
2022-09-28T07:02:31.485Z,4.30
2022-09-28T07:05:29.776Z,4.30
2022-09-28T07:08:38.914Z,4.60
2022-09-28T07:11:48.126Z,4.50
2022-09-28T07:14:48.054Z,4.60
2022-09-28T07:17:50.116Z,3.60
2022-09-28T07:20:53.742Z,4.50
2022-09-28T07:23:52.966Z,3.80
2022-09-28T07:26:45.591Z,3.90
2022-09-28T07:29:54.109Z,3.70
2022-09-28T07:32:56.138Z,3.70
2022-09-28T07:36:07.459Z,4.00
2022-09-28T07:38:55.604Z,3.60
2022-09-28T07:41:44.496Z,3.30
2022-09-28T07:44:33.850Z,3.80
2022-09-28T07:47:30.843Z,3.60
2022-09-28T07:50:39.114Z,3.90
2022-09-28T07:53:48.343Z,3.20
2022-09-28T07:56:55.030Z,4.00
2022-09-28T08:00:07.283Z,4.60
2022-09-28T08:03:05.220Z,4.30
2022-09-28T08:06:02.472Z,4.90
2022-09-28T08:08:50.514Z,4.80
2022-09-28T08:11:44.079Z,4.60
2022-09-28T08:15:00.374Z,4.20
2022-09-28T08:18:14.405Z,4.70
2022-09-28T08:21:24.187Z,4.30
2022-09-28T08:24:15.564Z,3.90
2022-09-28T08:27:04.108Z,4.30
2022-09-28T08:29:54.190Z,4.20
2022-09-28T08:33:18.119Z,3.90
2022-09-28T08:36:24.701Z,4.70
2022-09-28T08:39:31.299Z,5.10
2022-09-28T08:43:15.085Z,4.30
2022-09-28T08:46:45.328Z,4.70
2022-09-28T08:49:52.127Z,4.80
2022-09-28T08:53:20.934Z,4.70
2022-09-28T08:56:50.549Z,5.10
2022-09-28T08:59:56.043Z,4.90
2022-09-28T09:02:49.719Z,4.00
2022-09-28T09:06:18.635Z,4.70
2022-09-28T09:09:42.002Z,4.30
2022-09-28T09:13:19.254Z,4.20
2022-09-28T09:16:35.695Z,4.00
2022-09-28T09:20:08.647Z,4.70
2022-09-28T09:23:31.629Z,4.10
2022-09-28T09:26:29.259Z,3.90
2022-09-28T09:29:32.343Z,5.00
2022-09-28T09:32:33.341Z,7.80
2022-09-28T09:35:52.504Z,7.80
2022-09-28T09:39:08.688Z,6.30
2022-09-28T09:42:43.484Z,8.30
2022-09-28T09:46:30.135Z,7.50
2022-09-28T09:49:55.818Z,7.30
2022-09-28T09:53:00.170Z,5.60
2022-09-28T09:55:57.508Z,4.70
2022-09-28T09:59:06.868Z,4.50
2022-09-28T10:02:29.028Z,4.40
2022-09-28T10:05:46.949Z,5.40
2022-09-28T10:08:40.972Z,6.40
2022-09-28T10:11:36.773Z,5.50
2022-09-28T10:14:26.966Z,4.30
2022-09-28T10:17:27.884Z,4.80
2022-09-28T10:20:40.082Z,4.70
2022-09-28T10:23:45.080Z,4.60
2022-09-28T10:26:42.051Z,4.90
2022-09-28T10:29:46.038Z,6.40
2022-09-28T10:32:55.911Z,6.70
2022-09-28T10:35:47.971Z,6.00
2022-09-28T10:38:36.162Z,7.70
2022-09-28T10:41:50.133Z,6.00
2022-09-28T10:44:55.689Z,5.20
2022-09-28T10:47:55.939Z,6.40
2022-09-28T10:50:57.167Z,7.00
2022-09-28T10:54:05.704Z,6.80
2022-09-28T10:57:29.210Z,5.70
2022-09-28T11:00:43.311Z,4.40
2022-09-28T11:04:04.260Z,3.80
2022-09-28T11:06:52.822Z,4.20
2022-09-28T11:09:48.496Z,4.80
2022-09-28T11:12:44.151Z,4.90
2022-09-28T11:15:34.082Z,5.20
2022-09-28T11:18:31.908Z,5.10
2022-09-28T11:21:32.297Z,5.30
2022-09-28T11:24:27.183Z,4.10
2022-09-28T11:27:26.854Z,4.50
2022-09-28T11:30:42.476Z,4.50
2022-09-28T11:34:03.381Z,4.50
2022-09-28T11:37:23.556Z,3.90
2022-09-28T11:40:33.903Z,3.70
2022-09-28T11:43:39.834Z,4.20
2022-09-28T11:46:49.409Z,3.50
2022-09-28T11:49:52.572Z,3.40
2022-09-28T11:52:54.540Z,3.70
2022-09-28T11:55:54.495Z,3.60
2022-09-28T11:58:51.215Z,3.70
2022-09-28T12:02:19.643Z,3.20
2022-09-28T12:05:25.604Z,2.90
2022-09-28T12:08:28.987Z,3.40
2022-09-28T12:11:36.232Z,3.30
2022-09-28T12:14:40.081Z,3.10
2022-09-28T12:17:56.313Z,3.30
2022-09-28T12:20:51.860Z,3.20
2022-09-28T12:23:43.620Z,2.90
2022-09-28T12:26:57.584Z,2.90
2022-09-28T12:30:05.721Z,2.60
2022-09-28T12:33:12.493Z,2.90
2022-09-28T12:37:11.123Z,2.50
2022-09-28T12:40:22.921Z,2.90
2022-09-28T12:43:11.369Z,2.40
2022-09-28T12:46:30.039Z,2.60
2022-09-28T12:54:13.936Z,2.70
2022-09-28T12:57:43.996Z,2.40
2022-09-28T13:00:59.164Z,2.50
2022-09-28T13:04:21.995Z,2.10
2022-09-28T13:07:34.754Z,2.70
2022-09-28T13:10:32.895Z,2.60
2022-09-28T13:13:48.571Z,2.40
2022-09-28T13:16:46.127Z,2.20
2022-09-28T13:19:59.946Z,2.10
2022-09-28T13:22:53.100Z,2.40
2022-09-28T13:26:23.329Z,3.00
2022-09-28T13:29:18.852Z,1.80
2022-09-28T13:32:09.724Z,1.80
2022-09-28T13:34:59.036Z,2.10
2022-09-28T13:38:21.072Z,1.70
2022-09-28T13:41:12.425Z,1.70
2022-09-28T13:44:16.798Z,2.00
2022-09-28T13:47:16.876Z,2.00
2022-09-28T13:50:34.815Z,1.80
2022-09-28T13:53:47.688Z,1.70
2022-09-28T13:57:13.547Z,1.60
2022-09-28T14:00:13.791Z,2.10
2022-09-28T14:03:43.993Z,1.60
2022-09-28T14:06:33.522Z,2.10
2022-09-28T14:09:58.361Z,1.80
2022-09-28T14:12:54.527Z,2.00
2022-09-28T14:15:45.493Z,1.80
2022-09-28T14:18:37.415Z,2.00
2022-09-28T14:21:46.671Z,2.20
2022-09-28T14:25:17.667Z,1.80
2022-09-28T14:28:49.323Z,1.70
2022-09-28T14:31:43.867Z,1.60
2022-09-28T14:35:18.610Z,2.00
2022-09-28T14:38:54.169Z,1.80
2022-09-28T14:41:44.639Z,1.80
2022-09-28T14:45:06.603Z,2.10
2022-09-28T14:48:21.638Z,2.00
2022-09-28T14:51:25.081Z,1.80
2022-09-28T14:54:30.797Z,2.00
2022-09-28T14:57:24.444Z,2.00
2022-09-28T15:00:22.388Z,2.00
2022-09-28T15:03:13.067Z,2.10
2022-09-28T15:06:08.452Z,2.50
2022-09-28T15:08:56.555Z,2.10
2022-09-28T15:11:44.927Z,2.30
2022-09-28T15:14:40.449Z,2.50
2022-09-28T15:17:43.321Z,2.70
2022-09-28T15:20:40.435Z,2.80
2022-09-28T15:23:37.024Z,4.10
2022-09-28T15:26:31.192Z,3.70
2022-09-28T15:29:49.331Z,3.30
2022-09-28T15:32:37.250Z,3.10
2022-09-28T15:35:27.891Z,3.00
2022-09-28T15:38:19.604Z,3.40
2022-09-28T15:41:10.375Z,3.50
2022-09-28T15:44:38.308Z,3.80
2022-09-28T15:47:32.033Z,3.10
2022-09-28T15:50:30.131Z,4.40
2022-09-28T15:53:19.060Z,3.70
2022-09-28T15:56:10.393Z,4.50
2022-09-28T16:00:07.405Z,5.00
2022-09-28T16:03:13.918Z,5.20
2022-09-28T16:06:10.784Z,6.40
2022-09-28T16:08:58.908Z,5.00
2022-09-28T16:11:47.255Z,5.70
2022-09-28T16:14:35.232Z,5.90
2022-09-28T16:17:35.222Z,6.40
2022-09-28T16:20:39.870Z,4.60
2022-09-28T16:23:34.454Z,4.50
2022-09-28T16:26:36.268Z,4.80
2022-09-28T16:30:08.871Z,4.40
2022-09-28T16:33:05.317Z,4.90
2022-09-28T16:35:53.592Z,4.70
2022-09-28T16:38:45.529Z,5.30
2022-09-28T16:41:33.555Z,5.20
2022-09-28T16:44:31.953Z,4.80
2022-09-28T16:47:20.276Z,4.80
2022-09-28T16:50:12.656Z,4.40
2022-09-28T16:53:39.409Z,4.80
2022-09-28T16:56:34.999Z,5.20
2022-09-28T16:59:26.255Z,5.70
2022-09-28T17:02:46.278Z,5.10
2022-09-28T17:05:32.562Z,6.40
2022-09-28T17:08:25.240Z,7.80
2022-09-28T17:11:23.405Z,7.10
2022-09-28T17:14:12.665Z,8.50
2022-09-28T17:17:09.030Z,8.10
2022-09-28T17:19:58.858Z,8.90
2022-09-28T17:22:47.453Z,8.20
2022-09-28T17:25:36.788Z,8.80
2022-09-28T17:28:34.261Z,8.70
2022-09-28T17:31:22.403Z,8.60
2022-09-28T17:34:12.463Z,8.90
2022-09-28T17:37:00.414Z,10.20
2022-09-28T17:39:49.435Z,8.90
2022-09-28T17:42:37.295Z,9.10
2022-09-28T17:45:28.803Z,10.40
2022-09-28T17:48:24.409Z,9.10
2022-09-28T17:51:15.369Z,10.40
2022-09-28T17:54:08.231Z,9.60
2022-09-28T17:56:59.355Z,10.80
2022-09-28T18:00:06.007Z,11.40
2022-09-28T18:02:58.474Z,13.00
2022-09-28T18:05:58.662Z,11.80
2022-09-28T18:08:47.814Z,12.70
2022-09-28T18:11:44.276Z,12.70
2022-09-28T18:14:32.188Z,12.90
2022-09-28T18:17:20.128Z,12.90
2022-09-28T18:20:12.421Z,13.60
2022-09-28T18:23:02.659Z,22.50
2022-09-28T18:25:50.722Z,22.40
2022-09-28T18:28:39.114Z,20.80
2022-09-28T18:31:28.061Z,21.20
2022-09-28T18:34:16.482Z,22.50
2022-09-28T18:37:06.651Z,17.90
2022-09-28T18:39:54.467Z,19.60
2022-09-28T18:42:43.057Z,21.70
2022-09-28T18:45:33.283Z,20.10
2022-09-28T18:48:25.118Z,20.70
2022-09-28T18:51:15.116Z,18.90
2022-09-28T18:54:07.807Z,18.10
2022-09-28T18:56:58.961Z,19.30
2022-09-28T18:59:48.500Z,17.50
2022-09-28T19:02:37.344Z,15.40
2022-09-28T19:05:28.993Z,14.10
2022-09-28T19:08:16.888Z,14.90
2022-09-28T19:11:14.230Z,13.50
2022-09-28T19:14:03.854Z,14.90
2022-09-28T19:16:54.316Z,13.20
2022-09-28T19:19:45.233Z,13.40
2022-09-28T19:22:33.473Z,13.80
2022-09-28T19:25:21.291Z,16.50
2022-09-28T19:28:09.556Z,18.00
2022-09-28T19:33:53.990Z,17.30
2022-09-28T19:36:42.790Z,15.90
2022-09-28T19:39:31.267Z,15.40
2022-09-28T19:42:19.526Z,15.30
2022-09-28T19:45:08.944Z,14.80
2022-09-28T19:47:59.545Z,12.80
2022-09-28T19:51:08.356Z,14.90
2022-09-28T19:53:57.482Z,15.80
2022-09-28T19:56:50.460Z,17.20
2022-09-28T20:02:42.931Z,16.40
2022-09-28T20:05:32.637Z,13.90
2022-09-28T20:17:57.942Z,14.80
2022-09-28T20:21:05.900Z,14.50
2022-09-28T20:23:57.932Z,13.20
2022-09-28T20:26:49.762Z,14.00
2022-09-28T20:29:39.861Z,14.50
2022-09-28T20:32:32.850Z,13.40
2022-09-28T20:35:32.992Z,12.90
2022-09-28T20:38:21.533Z,12.30
2022-09-28T20:41:12.336Z,14.60
2022-09-28T20:44:05.009Z,16.20
2022-09-28T20:46:53.669Z,16.90
2022-09-28T20:49:41.893Z,19.10
2022-09-28T20:52:32.402Z,21.30
2022-09-28T20:55:20.807Z,20.60
2022-09-28T20:58:09.145Z,18.60
2022-09-28T21:01:22.835Z,17.90
2022-09-28T21:04:13.510Z,15.60
2022-09-28T21:07:02.209Z,15.70
2022-09-28T21:09:50.681Z,14.50
2022-09-28T21:12:39.223Z,16.50
2022-09-28T21:15:27.760Z,17.40
2022-09-28T21:18:19.292Z,17.40
2022-09-28T21:21:13.129Z,21.70
2022-09-28T21:24:02.560Z,22.20
2022-09-28T21:26:51.097Z,22.40
2022-09-28T21:29:42.516Z,24.30
2022-09-28T21:32:31.166Z,24.70
2022-09-28T21:35:19.968Z,25.50
2022-09-28T21:38:08.401Z,24.40
2022-09-28T21:41:00.516Z,24.60
2022-09-28T21:43:48.732Z,24.90
2022-09-28T21:46:38.718Z,23.70
2022-09-28T21:49:26.559Z,23.50
2022-09-28T21:52:14.749Z,21.60
2022-09-28T21:55:03.704Z,19.90
2022-09-28T21:57:51.896Z,19.80
2022-09-28T22:00:40.064Z,15.40
2022-09-28T22:03:30.789Z,15.00
2022-09-28T22:06:21.763Z,14.60
2022-09-28T22:09:10.324Z,14.60
2022-09-28T22:11:59.106Z,13.60
2022-09-28T22:14:47.304Z,13.50
2022-09-28T22:17:38.582Z,15.00
2022-09-28T22:20:29.079Z,14.50
2022-09-28T22:23:17.153Z,15.40
2022-09-28T22:26:09.885Z,14.60
2022-09-28T22:29:05.357Z,15.50
2022-09-28T22:32:00.263Z,16.10
2022-09-28T22:34:48.320Z,15.60
2022-09-28T22:37:36.243Z,15.20
2022-09-28T22:40:27.334Z,16.70
2022-09-28T22:43:16.096Z,15.00
2022-09-28T22:46:16.879Z,15.00
2022-09-28T22:49:04.702Z,14.40
2022-09-28T22:51:52.791Z,14.10
2022-09-28T22:54:40.918Z,16.10
2022-09-28T22:57:29.595Z,14.80
2022-09-28T23:00:17.751Z,14.00
2022-09-28T23:03:06.044Z,14.50
2022-09-28T23:05:56.707Z,14.60
2022-09-28T23:08:46.195Z,14.00
2022-09-28T23:11:34.482Z,13.50
2022-09-28T23:14:22.952Z,14.00
2022-09-28T23:17:10.654Z,13.20
2022-09-28T23:19:58.649Z,13.00
2022-09-28T23:22:50.837Z,13.70
2022-09-28T23:25:38.444Z,12.90
2022-09-28T23:28:27.471Z,12.60
2022-09-28T23:31:23.216Z,11.70
2022-09-28T23:34:11.355Z,12.40
2022-09-28T23:36:59.617Z,11.90
2022-09-28T23:39:47.928Z,13.10
2022-09-28T23:42:36.355Z,14.10
2022-09-28T23:45:25.367Z,11.10
2022-09-28T23:48:15.237Z,12.70
2022-09-28T23:51:04.306Z,11.50
2022-09-28T23:53:52.657Z,11.50
2022-09-28T23:56:41.122Z,11.70
2022-09-28T23:59:29.816Z,11.10
